sensor_id;sensor_type;location;lat;lon;timestamp;pressure;altitude;pressure_sealevel;temperature;humidity
15193;BME280;7697;51.630;7.484;2023-03-19T00:00:19;100411.06;;;11.22;90.56
15193;BME280;7697;51.630;7.484;2023-03-19T00:05:21;100407.59;;;11.22;90.46
15193;BME280;7697;51.630;7.484;2023-03-19T00:10:24;100419.03;;;11.22;90.01
15193;BME280;7697;51.630;7.484;2023-03-19T00:15:26;100430.03;;;11.19;90.20
15193;BME280;7697;51.630;7.484;2023-03-19T00:20:28;100446.75;;;11.13;90.36
15193;BME280;7697;51.630;7.484;2023-03-19T00:25:31;100442.69;;;11.17;90.53
15193;BME280;7697;51.630;7.484;2023-03-19T00:30:33;100429.22;;;11.19;90.34
15193;BME280;7697;51.630;7.484;2023-03-19T00:35:35;100428.63;;;11.17;90.81
15193;BME280;7697;51.630;7.484;2023-03-19T00:40:41;100426.78;;;11.11;91.24
15193;BME280;7697;51.630;7.484;2023-03-19T00:45:43;100421.09;;;11.01;91.09
15193;BME280;7697;51.630;7.484;2023-03-19T00:50:44;100415.00;;;11.00;91.65
15193;BME280;7697;51.630;7.484;2023-03-19T00:55:48;100425.16;;;11.16;92.19
15193;BME280;7697;51.630;7.484;2023-03-19T01:00:51;100409.25;;;11.10;91.44
15193;BME280;7697;51.630;7.484;2023-03-19T01:05:53;100420.06;;;11.15;91.27
15193;BME280;7697;51.630;7.484;2023-03-19T01:11:03;100443.28;;;11.26;91.56
15193;BME280;7697;51.630;7.484;2023-03-19T01:16:06;100439.00;;;11.18;91.45
15193;BME280;7697;51.630;7.484;2023-03-19T01:21:08;100438.63;;;11.15;91.71
15193;BME280;7697;51.630;7.484;2023-03-19T01:26:11;100440.63;;;11.19;92.00
15193;BME280;7697;51.630;7.484;2023-03-19T01:31:14;100437.78;;;11.14;91.54
15193;BME280;7697;51.630;7.484;2023-03-19T01:36:16;100421.91;;;11.01;91.70
15193;BME280;7697;51.630;7.484;2023-03-19T01:41:19;100420.50;;;10.99;91.63
15193;BME280;7697;51.630;7.484;2023-03-19T01:46:26;100414.56;;;11.03;91.62
15193;BME280;7697;51.630;7.484;2023-03-19T01:51:35;100402.38;;;10.89;91.13
15193;BME280;7697;51.630;7.484;2023-03-19T01:56:44;100422.31;;;10.91;91.04
15193;BME280;7697;51.630;7.484;2023-03-19T02:01:50;100419.06;;;10.83;91.40
15193;BME280;7697;51.630;7.484;2023-03-19T02:06:57;100428.03;;;10.69;91.28
15193;BME280;7697;51.630;7.484;2023-03-19T02:12:01;100414.59;;;10.50;91.48
15193;BME280;7697;51.630;7.484;2023-03-19T02:17:03;100428.06;;;10.56;91.58
15193;BME280;7697;51.630;7.484;2023-03-19T02:22:07;100419.25;;;10.48;91.30
15193;BME280;7697;51.630;7.484;2023-03-19T02:27:13;100413.16;;;10.35;91.66
15193;BME280;7697;51.630;7.484;2023-03-19T02:32:14;100413.75;;;10.30;91.54
15193;BME280;7697;51.630;7.484;2023-03-19T02:37:20;100407.44;;;10.25;91.89
15193;BME280;7697;51.630;7.484;2023-03-19T02:42:26;100411.25;;;10.15;92.15
15193;BME280;7697;51.630;7.484;2023-03-19T02:47:29;100411.88;;;10.11;92.76
15193;BME280;7697;51.630;7.484;2023-03-19T02:52:31;100400.44;;;10.04;92.50
15193;BME280;7697;51.630;7.484;2023-03-19T02:57:34;100399.03;;;10.08;92.17
15193;BME280;7697;51.630;7.484;2023-03-19T03:02:36;100399.41;;;10.05;92.21
15193;BME280;7697;51.630;7.484;2023-03-19T03:07:38;100418.16;;;10.10;91.92
15193;BME280;7697;51.630;7.484;2023-03-19T03:12:43;100408.97;;;9.99;91.97
15193;BME280;7697;51.630;7.484;2023-03-19T03:17:46;100408.34;;;9.97;91.71
15193;BME280;7697;51.630;7.484;2023-03-19T03:22:47;100398.53;;;9.78;92.11
15193;BME280;7697;51.630;7.484;2023-03-19T03:27:51;100403.78;;;9.71;92.55
15193;BME280;7697;51.630;7.484;2023-03-19T03:32:55;100419.66;;;9.71;92.82
15193;BME280;7697;51.630;7.484;2023-03-19T03:37:57;100420.84;;;9.69;92.98
15193;BME280;7697;51.630;7.484;2023-03-19T03:43:00;100406.63;;;9.70;92.69
15193;BME280;7697;51.630;7.484;2023-03-19T03:48:02;100419.69;;;9.78;92.99
15193;BME280;7697;51.630;7.484;2023-03-19T03:53:05;100414.38;;;9.71;92.92
15193;BME280;7697;51.630;7.484;2023-03-19T03:58:09;100420.94;;;9.82;93.14
15193;BME280;7697;51.630;7.484;2023-03-19T04:03:12;100422.34;;;9.85;92.77
15193;BME280;7697;51.630;7.484;2023-03-19T04:08:14;100411.56;;;9.79;93.43
15193;BME280;7697;51.630;7.484;2023-03-19T04:13:17;100421.75;;;9.89;93.03
15193;BME280;7697;51.630;7.484;2023-03-19T04:18:19;100414.84;;;9.95;92.54
15193;BME280;7697;51.630;7.484;2023-03-19T04:23:21;100412.81;;;9.97;92.61
15193;BME280;7697;51.630;7.484;2023-03-19T04:28:24;100416.09;;;9.99;92.81
15193;BME280;7697;51.630;7.484;2023-03-19T04:33:26;100436.88;;;10.02;92.78
15193;BME280;7697;51.630;7.484;2023-03-19T04:38:29;100428.69;;;9.97;92.85
15193;BME280;7697;51.630;7.484;2023-03-19T04:43:32;100425.66;;;10.00;93.09
15193;BME280;7697;51.630;7.484;2023-03-19T04:48:36;100421.19;;;10.00;92.18
15193;BME280;7697;51.630;7.484;2023-03-19T04:53:39;100442.56;;;10.12;92.53
15193;BME280;7697;51.630;7.484;2023-03-19T04:58:42;100441.16;;;10.09;92.75
15193;BME280;7697;51.630;7.484;2023-03-19T05:03:44;100454.59;;;10.14;93.05
15193;BME280;7697;51.630;7.484;2023-03-19T05:08:46;100435.63;;;9.98;93.14
15193;BME280;7697;51.630;7.484;2023-03-19T05:13:50;100459.44;;;9.98;93.19
15193;BME280;7697;51.630;7.484;2023-03-19T05:18:51;100463.91;;;9.97;93.87
15193;BME280;7697;51.630;7.484;2023-03-19T05:23:53;100455.16;;;9.97;94.16
15193;BME280;7697;51.630;7.484;2023-03-19T05:28:57;100470.47;;;10.08;94.00
15193;BME280;7697;51.630;7.484;2023-03-19T05:33:59;100455.22;;;10.10;94.26
15193;BME280;7697;51.630;7.484;2023-03-19T05:39:01;100469.13;;;10.25;94.29
15193;BME280;7697;51.630;7.484;2023-03-19T05:44:07;100461.38;;;10.30;94.33
15193;BME280;7697;51.630;7.484;2023-03-19T05:49:09;100476.09;;;10.46;94.43
15193;BME280;7697;51.630;7.484;2023-03-19T05:54:10;100487.13;;;10.63;94.46
15193;BME280;7697;51.630;7.484;2023-03-19T05:59:14;100480.63;;;10.72;94.27
15193;BME280;7697;51.630;7.484;2023-03-19T06:04:16;100481.03;;;10.82;93.74
15193;BME280;7697;51.630;7.484;2023-03-19T06:09:17;100486.31;;;10.95;93.87
15193;BME280;7697;51.630;7.484;2023-03-19T06:14:21;100483.47;;;10.97;93.52
15193;BME280;7697;51.630;7.484;2023-03-19T06:19:22;100503.06;;;11.09;93.67
15193;BME280;7697;51.630;7.484;2023-03-19T06:24:25;100497.34;;;11.05;93.47
15193;BME280;7697;51.630;7.484;2023-03-19T06:29:31;100514.25;;;11.31;93.86
15193;BME280;7697;51.630;7.484;2023-03-19T06:34:33;100503.84;;;11.36;93.52
15193;BME280;7697;51.630;7.484;2023-03-19T06:39:35;100513.22;;;11.45;93.29
15193;BME280;7697;51.630;7.484;2023-03-19T06:44:40;100540.94;;;11.62;93.52
15193;BME280;7697;51.630;7.484;2023-03-19T06:49:42;100536.84;;;11.66;93.72
15193;BME280;7697;51.630;7.484;2023-03-19T06:54:43;100544.19;;;11.71;94.70
15193;BME280;7697;51.630;7.484;2023-03-19T06:59:47;100547.03;;;11.69;95.56
15193;BME280;7697;51.630;7.484;2023-03-19T07:04:48;100550.53;;;11.76;96.42
15193;BME280;7697;51.630;7.484;2023-03-19T07:09:51;100556.44;;;11.78;96.29
15193;BME280;7697;51.630;7.484;2023-03-19T07:14:54;100559.47;;;11.88;96.45
15193;BME280;7697;51.630;7.484;2023-03-19T07:19:56;100546.22;;;11.88;96.79
15193;BME280;7697;51.630;7.484;2023-03-19T07:24:58;100554.56;;;11.98;96.61
15193;BME280;7697;51.630;7.484;2023-03-19T07:30:02;100569.66;;;12.05;97.18
15193;BME280;7697;51.630;7.484;2023-03-19T07:35:05;100558.00;;;12.06;97.58
15193;BME280;7697;51.630;7.484;2023-03-19T07:40:09;100571.22;;;12.19;97.55
15193;BME280;7697;51.630;7.484;2023-03-19T07:45:12;100583.22;;;12.34;98.42
15193;BME280;7697;51.630;7.484;2023-03-19T07:50:14;100576.88;;;12.42;98.88
15193;BME280;7697;51.630;7.484;2023-03-19T07:55:16;100586.13;;;12.64;99.99
15193;BME280;7697;51.630;7.484;2023-03-19T08:00:20;100577.91;;;12.79;99.09
15193;BME280;7697;51.630;7.484;2023-03-19T08:05:22;100582.72;;;12.89;98.79
15193;BME280;7697;51.630;7.484;2023-03-19T08:10:24;100591.66;;;13.01;98.90
15193;BME280;7697;51.630;7.484;2023-03-19T08:15:27;100597.16;;;13.06;99.08
15193;BME280;7697;51.630;7.484;2023-03-19T08:20:29;100592.19;;;13.16;98.86
15193;BME280;7697;51.630;7.484;2023-03-19T08:25:31;100598.44;;;13.28;98.11
15193;BME280;7697;51.630;7.484;2023-03-19T08:30:35;100601.09;;;13.28;97.43
15193;BME280;7697;51.630;7.484;2023-03-19T08:35:37;100610.94;;;13.28;97.27
15193;BME280;7697;51.630;7.484;2023-03-19T08:40:39;100614.41;;;13.28;97.38
15193;BME280;7697;51.630;7.484;2023-03-19T08:45:42;100623.34;;;13.40;97.31
15193;BME280;7697;51.630;7.484;2023-03-19T08:50:44;100630.00;;;13.74;96.79
15193;BME280;7697;51.630;7.484;2023-03-19T08:55:51;100639.50;;;13.88;95.65
15193;BME280;7697;51.630;7.484;2023-03-19T09:00:59;100637.03;;;13.87;95.09
15193;BME280;7697;51.630;7.484;2023-03-19T09:06:03;100641.78;;;13.85;95.07
15193;BME280;7697;51.630;7.484;2023-03-19T09:11:05;100648.84;;;13.73;94.70
15193;BME280;7697;51.630;7.484;2023-03-19T09:16:09;100648.84;;;13.73;94.32
15193;BME280;7697;51.630;7.484;2023-03-19T09:21:10;100636.25;;;13.62;94.25
15193;BME280;7697;51.630;7.484;2023-03-19T09:26:12;100636.41;;;13.67;94.31
15193;BME280;7697;51.630;7.484;2023-03-19T09:31:15;100653.91;;;13.81;94.17
15193;BME280;7697;51.630;7.484;2023-03-19T09:36:17;100656.13;;;13.84;93.94
15193;BME280;7697;51.630;7.484;2023-03-19T09:41:23;100653.41;;;13.90;93.25
15193;BME280;7697;51.630;7.484;2023-03-19T09:46:35;100656.00;;;13.97;93.27
15193;BME280;7697;51.630;7.484;2023-03-19T09:51:43;100665.94;;;14.08;93.04
15193;BME280;7697;51.630;7.484;2023-03-19T09:56:47;100663.81;;;14.17;92.24
15193;BME280;7697;51.630;7.484;2023-03-19T10:01:58;100678.56;;;14.38;91.46
15193;BME280;7697;51.630;7.484;2023-03-19T10:07:07;100676.13;;;14.54;90.37
15193;BME280;7697;51.630;7.484;2023-03-19T10:12:25;100685.09;;;14.60;89.01
15193;BME280;7697;51.630;7.484;2023-03-19T10:17:34;100676.06;;;14.61;88.29
15193;BME280;7697;51.630;7.484;2023-03-19T10:22:40;100668.78;;;14.68;88.44
15193;BME280;7697;51.630;7.484;2023-03-19T10:27:52;100675.72;;;14.87;88.42
15193;BME280;7697;51.630;7.484;2023-03-19T10:33:07;100663.13;;;14.94;87.28
15193;BME280;7697;51.630;7.484;2023-03-19T10:38:19;100679.81;;;15.20;87.11
15193;BME280;7697;51.630;7.484;2023-03-19T10:43:23;100677.72;;;15.22;86.86
15193;BME280;7697;51.630;7.484;2023-03-19T10:48:27;100680.81;;;15.49;86.64
15193;BME280;7697;51.630;7.484;2023-03-19T10:53:32;100688.34;;;15.82;85.40
15193;BME280;7697;51.630;7.484;2023-03-19T10:58:35;100693.25;;;16.08;83.74
15193;BME280;7697;51.630;7.484;2023-03-19T11:03:41;100693.22;;;16.31;83.19
15193;BME280;7697;51.630;7.484;2023-03-19T11:08:55;100684.25;;;16.49;82.45
15193;BME280;7697;51.630;7.484;2023-03-19T11:13:56;100688.78;;;16.72;80.65
15193;BME280;7697;51.630;7.484;2023-03-19T11:19:00;100689.66;;;16.89;80.28
15193;BME280;7697;51.630;7.484;2023-03-19T11:24:03;100689.72;;;17.06;79.22
15193;BME280;7697;51.630;7.484;2023-03-19T11:29:05;100690.38;;;17.13;78.62
15193;BME280;7697;51.630;7.484;2023-03-19T11:34:17;100680.63;;;17.07;79.26
15193;BME280;7697;51.630;7.484;2023-03-19T11:39:26;100683.34;;;17.85;76.71
15193;BME280;7697;51.630;7.484;2023-03-19T11:44:33;100672.72;;;18.67;74.33
15193;BME280;7697;51.630;7.484;2023-03-19T11:49:49;100677.75;;;18.86;72.37
15193;BME280;7697;51.630;7.484;2023-03-19T11:55:04;100678.13;;;18.72;70.86
15193;BME280;7697;51.630;7.484;2023-03-19T12:00:24;100668.66;;;18.26;71.51
15193;BME280;7697;51.630;7.484;2023-03-19T12:05:43;100663.59;;;17.91;71.95
15193;BME280;7697;51.630;7.484;2023-03-19T12:10:57;100675.88;;;17.87;71.56
15193;BME280;7697;51.630;7.484;2023-03-19T12:16:10;100662.97;;;17.84;71.58
15193;BME280;7697;51.630;7.484;2023-03-19T12:21:23;100679.63;;;17.86;71.96
15193;BME280;7697;51.630;7.484;2023-03-19T12:26:36;100676.03;;;17.81;72.17
15193;BME280;7697;51.630;7.484;2023-03-19T12:31:49;100678.00;;;17.69;72.26
15193;BME280;7697;51.630;7.484;2023-03-19T12:37:03;100663.56;;;17.41;72.40
15193;BME280;7697;51.630;7.484;2023-03-19T12:42:11;100673.66;;;17.06;73.34
15193;BME280;7697;51.630;7.484;2023-03-19T12:47:19;100659.56;;;16.82;74.65
15193;BME280;7697;51.630;7.484;2023-03-19T12:52:28;100671.91;;;16.71;76.35
15193;BME280;7697;51.630;7.484;2023-03-19T12:57:35;100694.94;;;16.61;77.47
15193;BME280;7697;51.630;7.484;2023-03-19T13:02:42;100694.03;;;16.43;77.94
15193;BME280;7697;51.630;7.484;2023-03-19T13:07:50;100697.19;;;16.17;76.37
15193;BME280;7697;51.630;7.484;2023-03-19T13:12:53;100702.38;;;15.77;79.05
15193;BME280;7697;51.630;7.484;2023-03-19T13:18:03;100707.47;;;15.55;80.81
15193;BME280;7697;51.630;7.484;2023-03-19T13:23:12;100710.53;;;15.52;82.47
15193;BME280;7697;51.630;7.484;2023-03-19T13:28:21;100687.16;;;15.54;82.66
15193;BME280;7697;51.630;7.484;2023-03-19T13:33:25;100702.75;;;15.51;83.91
15193;BME280;7697;51.630;7.484;2023-03-19T13:38:36;100689.84;;;15.36;85.45
15193;BME280;7697;51.630;7.484;2023-03-19T13:43:40;100685.59;;;15.47;86.27
15193;BME280;7697;51.630;7.484;2023-03-19T13:48:50;100679.25;;;15.59;86.38
15193;BME280;7697;51.630;7.484;2023-03-19T13:53:54;100684.38;;;15.61;86.03
15193;BME280;7697;51.630;7.484;2023-03-19T13:59:22;100680.19;;;15.76;86.14
15193;BME280;7697;51.630;7.484;2023-03-19T14:04:27;100675.56;;;15.84;86.33
15193;BME280;7697;51.630;7.484;2023-03-19T14:09:36;100683.13;;;15.98;85.50
15193;BME280;7697;51.630;7.484;2023-03-19T14:14:41;100674.16;;;15.93;85.24
15193;BME280;7697;51.630;7.484;2023-03-19T14:19:44;100680.81;;;15.90;84.96
15193;BME280;7697;51.630;7.484;2023-03-19T14:25:10;100686.16;;;15.90;83.03
15193;BME280;7697;51.630;7.484;2023-03-19T14:30:28;100682.06;;;15.88;84.53
15193;BME280;7697;51.630;7.484;2023-03-19T14:35:35;100694.25;;;15.84;83.94
15193;BME280;7697;51.630;7.484;2023-03-19T14:40:43;100677.06;;;15.80;84.52
15193;BME280;7697;51.630;7.484;2023-03-19T14:45:51;100687.78;;;15.91;84.59
15193;BME280;7697;51.630;7.484;2023-03-19T14:51:21;100684.88;;;15.81;82.89
15193;BME280;7697;51.630;7.484;2023-03-19T14:56:33;100693.78;;;15.75;81.97
15193;BME280;7697;51.630;7.484;2023-03-19T15:01:39;100686.56;;;15.75;82.43
15193;BME280;7697;51.630;7.484;2023-03-19T15:06:43;100678.47;;;15.70;83.31
15193;BME280;7697;51.630;7.484;2023-03-19T15:11:59;100687.41;;;15.76;81.91
15193;BME280;7697;51.630;7.484;2023-03-19T15:17:13;100689.41;;;15.81;81.23
15193;BME280;7697;51.630;7.484;2023-03-19T15:22:20;100686.97;;;15.91;81.34
15193;BME280;7697;51.630;7.484;2023-03-19T15:27:25;100682.06;;;15.88;80.37
15193;BME280;7697;51.630;7.484;2023-03-19T15:32:32;100700.53;;;15.89;78.16
15193;BME280;7697;51.630;7.484;2023-03-19T15:37:36;100694.25;;;15.84;79.30
15193;BME280;7697;51.630;7.484;2023-03-19T15:42:42;100682.78;;;15.95;78.69
15193;BME280;7697;51.630;7.484;2023-03-19T15:47:50;100699.03;;;16.05;78.22
15193;BME280;7697;51.630;7.484;2023-03-19T15:52:56;100701.03;;;16.09;78.11
15193;BME280;7697;51.630;7.484;2023-03-19T15:58:05;100698.09;;;16.11;78.17
15193;BME280;7697;51.630;7.484;2023-03-19T16:03:14;100706.13;;;16.11;78.31
15193;BME280;7697;51.630;7.484;2023-03-19T16:08:20;100707.19;;;16.10;78.66
15193;BME280;7697;51.630;7.484;2023-03-19T16:13:28;100712.53;;;16.10;78.66
15193;BME280;7697;51.630;7.484;2023-03-19T16:18:40;100718.09;;;16.08;78.75
15193;BME280;7697;51.630;7.484;2023-03-19T16:23:44;100715.06;;;16.05;78.68
15193;BME280;7697;51.630;7.484;2023-03-19T16:28:57;100731.47;;;16.08;78.16
15193;BME280;7697;51.630;7.484;2023-03-19T16:33:59;100731.56;;;16.02;78.75
15193;BME280;7697;51.630;7.484;2023-03-19T16:39:18;100741.91;;;15.98;77.83
15193;BME280;7697;51.630;7.484;2023-03-19T16:44:26;100743.63;;;15.93;78.39
15193;BME280;7697;51.630;7.484;2023-03-19T16:49:29;100753.97;;;15.89;78.38
15193;BME280;7697;51.630;7.484;2023-03-19T16:54:30;100753.16;;;15.89;79.20
15193;BME280;7697;51.630;7.484;2023-03-19T16:59:34;100748.16;;;15.81;79.08
15193;BME280;7697;51.630;7.484;2023-03-19T17:04:35;100762.09;;;15.83;79.72
15193;BME280;7697;51.630;7.484;2023-03-19T17:09:37;100761.94;;;15.77;79.63
15193;BME280;7697;51.630;7.484;2023-03-19T17:14:41;100770.75;;;15.66;80.04
15193;BME280;7697;51.630;7.484;2023-03-19T17:19:44;100782.34;;;15.60;79.80
15193;BME280;7697;51.630;7.484;2023-03-19T17:24:46;100786.44;;;15.45;80.25
15193;BME280;7697;51.630;7.484;2023-03-19T17:29:50;100796.41;;;15.49;80.31
15193;BME280;7697;51.630;7.484;2023-03-19T17:34:51;100801.72;;;15.37;80.17
15193;BME280;7697;51.630;7.484;2023-03-19T17:39:53;100797.25;;;15.31;80.86
15193;BME280;7697;51.630;7.484;2023-03-19T17:44:56;100804.91;;;15.28;80.27
15193;BME280;7697;51.630;7.484;2023-03-19T17:50:00;100808.25;;;15.23;80.89
15193;BME280;7697;51.630;7.484;2023-03-19T17:55:09;100811.59;;;15.19;81.74
15193;BME280;7697;51.630;7.484;2023-03-19T18:00:16;100815.00;;;15.08;81.83
15193;BME280;7697;51.630;7.484;2023-03-19T18:05:20;100826.13;;;15.05;82.04
15193;BME280;7697;51.630;7.484;2023-03-19T18:10:24;100845.47;;;15.00;82.79
15193;BME280;7697;51.630;7.484;2023-03-19T18:15:30;100845.81;;;14.85;83.36
15193;BME280;7697;51.630;7.484;2023-03-19T18:20:36;100848.63;;;14.72;83.62
15193;BME280;7697;51.630;7.484;2023-03-19T18:25:38;100839.41;;;14.68;83.82
15193;BME280;7697;51.630;7.484;2023-03-19T18:30:42;100852.00;;;14.61;83.64
15193;BME280;7697;51.630;7.484;2023-03-19T18:35:45;100863.09;;;14.58;84.96
15193;BME280;7697;51.630;7.484;2023-03-19T18:40:48;100865.00;;;14.51;84.75
15193;BME280;7697;51.630;7.484;2023-03-19T18:45:52;100876.31;;;14.46;85.01
15193;BME280;7697;51.630;7.484;2023-03-19T18:50:54;100896.81;;;14.46;85.47
15193;BME280;7697;51.630;7.484;2023-03-19T18:55:56;100889.03;;;14.44;85.87
15193;BME280;7697;51.630;7.484;2023-03-19T19:01:00;100889.06;;;14.38;85.92
15193;BME280;7697;51.630;7.484;2023-03-19T19:06:03;100897.91;;;14.32;85.78
15193;BME280;7697;51.630;7.484;2023-03-19T19:11:06;100900.19;;;14.28;85.90
15193;BME280;7697;51.630;7.484;2023-03-19T19:16:15;100917.00;;;14.28;86.31
15193;BME280;7697;51.630;7.484;2023-03-19T19:21:18;100912.53;;;14.22;86.72
15193;BME280;7697;51.630;7.484;2023-03-19T19:26:22;100910.28;;;14.19;87.10
15193;BME280;7697;51.630;7.484;2023-03-19T19:31:27;100915.00;;;14.17;87.44
15193;BME280;7697;51.630;7.484;2023-03-19T19:36:30;100918.53;;;14.11;87.21
15193;BME280;7697;51.630;7.484;2023-03-19T19:41:32;100923.31;;;14.03;87.39
15193;BME280;7697;51.630;7.484;2023-03-19T19:46:35;100926.19;;;14.01;87.58
15193;BME280;7697;51.630;7.484;2023-03-19T19:51:37;100936.00;;;14.01;87.85
15193;BME280;7697;51.630;7.484;2023-03-19T19:56:39;100949.94;;;13.96;88.22
15193;BME280;7697;51.630;7.484;2023-03-19T20:01:42;100963.06;;;13.98;88.10
15193;BME280;7697;51.630;7.484;2023-03-19T20:06:45;100964.75;;;13.85;88.08
15193;BME280;7697;51.630;7.484;2023-03-19T20:11:47;100959.28;;;13.74;89.15
15193;BME280;7697;51.630;7.484;2023-03-19T20:16:50;100957.25;;;13.63;88.61
15193;BME280;7697;51.630;7.484;2023-03-19T20:21:55;100971.00;;;13.53;88.55
15193;BME280;7697;51.630;7.484;2023-03-19T20:26:57;100964.47;;;13.36;89.24
15193;BME280;7697;51.630;7.484;2023-03-19T20:32:01;100979.44;;;13.30;89.43
15193;BME280;7697;51.630;7.484;2023-03-19T20:37:03;100984.16;;;13.22;89.70
15193;BME280;7697;51.630;7.484;2023-03-19T20:42:07;101024.44;;;13.25;90.76
15193;BME280;7697;51.630;7.484;2023-03-19T20:47:16;101014.03;;;13.17;89.96
15193;BME280;7697;51.630;7.484;2023-03-19T20:52:18;101011.97;;;13.06;90.53
15193;BME280;7697;51.630;7.484;2023-03-19T20:57:24;101017.88;;;13.08;90.94
15193;BME280;7697;51.630;7.484;2023-03-19T21:02:29;101019.72;;;12.94;91.63
15193;BME280;7697;51.630;7.484;2023-03-19T21:07:32;101035.28;;;12.97;91.36
15193;BME280;7697;51.630;7.484;2023-03-19T21:12:34;101039.94;;;12.89;91.25
15193;BME280;7697;51.630;7.484;2023-03-19T21:17:37;101042.59;;;12.89;90.80
15193;BME280;7697;51.630;7.484;2023-03-19T21:22:40;101034.19;;;12.72;90.56
15193;BME280;7697;51.630;7.484;2023-03-19T21:27:44;101037.88;;;12.71;90.77
15193;BME280;7697;51.630;7.484;2023-03-19T21:32:48;101039.06;;;12.62;91.02
15193;BME280;7697;51.630;7.484;2023-03-19T21:37:51;101041.34;;;12.58;91.09
15193;BME280;7697;51.630;7.484;2023-03-19T21:42:56;101041.09;;;12.53;91.04
15193;BME280;7697;51.630;7.484;2023-03-19T21:48:17;101033.13;;;12.47;91.36
15193;BME280;7697;51.630;7.484;2023-03-19T21:53:21;101039.66;;;12.44;91.64
15193;BME280;7697;51.630;7.484;2023-03-19T21:58:27;101049.25;;;12.38;91.29
15193;BME280;7697;51.630;7.484;2023-03-19T22:03:32;101050.88;;;12.33;91.04
15193;BME280;7697;51.630;7.484;2023-03-19T22:08:34;101045.91;;;12.17;91.52
15193;BME280;7697;51.630;7.484;2023-03-19T22:13:36;101042.00;;;12.13;91.46
15193;BME280;7697;51.630;7.484;2023-03-19T22:18:39;101055.72;;;12.16;91.60
15193;BME280;7697;51.630;7.484;2023-03-19T22:23:41;101053.44;;;12.13;91.68
15193;BME280;7697;51.630;7.484;2023-03-19T22:28:43;101059.56;;;12.14;92.51
15193;BME280;7697;51.630;7.484;2023-03-19T22:33:46;101054.88;;;12.16;91.85
15193;BME280;7697;51.630;7.484;2023-03-19T22:38:49;101075.97;;;12.24;92.15
15193;BME280;7697;51.630;7.484;2023-03-19T22:43:51;101060.78;;;12.18;92.07
15193;BME280;7697;51.630;7.484;2023-03-19T22:48:55;101073.91;;;12.26;92.14
15193;BME280;7697;51.630;7.484;2023-03-19T22:53:57;101063.88;;;12.15;92.36
15193;BME280;7697;51.630;7.484;2023-03-19T22:58:58;101075.97;;;12.24;92.45
15193;BME280;7697;51.630;7.484;2023-03-19T23:04:13;101077.34;;;12.20;92.60
15193;BME280;7697;51.630;7.484;2023-03-19T23:09:18;101085.31;;;12.20;92.73
15193;BME280;7697;51.630;7.484;2023-03-19T23:14:21;101088.16;;;12.18;92.88
15193;BME280;7697;51.630;7.484;2023-03-19T23:19:27;101084.81;;;11.96;93.47
15193;BME280;7697;51.630;7.484;2023-03-19T23:24:29;101095.44;;;11.96;94.14
15193;BME280;7697;51.630;7.484;2023-03-19T23:29:34;101101.13;;;12.00;94.48
15193;BME280;7697;51.630;7.484;2023-03-19T23:34:37;101097.00;;;11.91;94.75
15193;BME280;7697;51.630;7.484;2023-03-19T23:39:39;101100.22;;;11.80;95.44
15193;BME280;7697;51.630;7.484;2023-03-19T23:44:42;101118.19;;;11.84;96.29
15193;BME280;7697;51.630;7.484;2023-03-19T23:49:45;101110.31;;;11.70;95.64
15193;BME280;7697;51.630;7.484;2023-03-19T23:54:47;101118.81;;;11.80;95.55
15193;BME280;7697;51.630;7.484;2023-03-19T23:59:50;101119.38;;;11.75;95.84
